Latest Weather Observations for Creal Reef

IDQ60801

Issued at 9:32 pm EST Monday 26 September 2022 (issued every 10 minutes, with the page automatically refreshed every 10 minutes)

About weather observations | Map of weather stations | Latest weather observations for QLD | Other Formats
Station Details ID: 200736 Name: CREAL REEF Lat: -20.53 Lon: 150.38 Height: 1.7 m
Data from the previous 72 hours. | See also: Recent months for locations in Queensland
Date/Time
EST
Temp
°C
App
Temp
°C
Dew
Point
°C
Rel
Hum
%
Delta-T
°C
Wind Press
QNH
hPa
Press
MSL
hPa
Rain since
9am
mm
Dir  Spd
km/h
Gust
km/h
Spd
kts
Gust
kts
26/09:30pm 24.3 - - - - E 24 28 13 15 1014.5 1014.4 -
26/09:00pm 24.4 - - - - E 26 30 14 16 1014.5 1014.4 -
26/07:30pm 24.4 - - - - ESE 20 22 11 12 1014.1 1014.0 -
26/06:30pm 24.3 - - - - - - - - - 1013.9 1013.8 -
26/05:30pm 24.5 - - - - - - - - - 1013.0 1012.9 -
26/04:00pm 24.7 - - - - ESE 20 22 11 12 1012.7 1012.6 -
26/03:30pm 24.7 - - - - ESE 20 22 11 12 1012.6 1012.5 -
26/03:00pm 24.7 - - - - E 19 20 10 11 1012.8 1012.7 -
26/02:30pm 24.6 - - - - E 19 22 10 12 1012.9 1012.8 -
26/02:00pm 24.6 - - - - E 22 24 12 13 1013.0 1012.9 -
26/01:30pm 24.6 - - - - E 20 24 11 13 1013.6 1013.5 -
26/01:00pm 24.7 - - - - E 20 22 11 12 1014.1 1014.0 -
26/12:30pm 24.6 - - - - E 20 22 11 12 1014.5 1014.4 -
26/12:00pm 24.5 - - - - E 17 19 9 10 1015.1 1015.0 -
26/11:30am 24.5 - - - - E 17 20 9 11 1015.4 1015.3 -
26/11:00am 24.5 - - - - E 20 20 11 11 1015.6 1015.5 -
26/10:30am 24.4 - - - - E 19 20 10 11 1015.8 1015.7 -
26/10:00am 24.5 - - - - E 20 24 11 13 1015.7 1015.6 -
26/09:30am 24.5 - - - - E 20 24 11 13 1015.9 1015.8 -
26/09:00am 24.5 - - - - E 22 26 12 14 1015.8 1015.7 -
26/08:30am 24.4 - - - - E 20 24 11 13 1015.7 1015.6 -
26/08:00am 24.5 - - - - E 22 26 12 14 1015.5 1015.4 -
26/07:30am 24.5 - - - - E 20 22 11 12 1015.5 1015.4 -
26/07:00am 24.3 - - - - E 17 20 9 11 1015.1 1015.0 -
26/06:30am 24.4 - - - - E 17 19 9 10 1014.9 1014.8 -
26/06:00am 24.4 - - - - ENE 17 19 9 10 1014.6 1014.5 -
26/05:30am 24.2 - - - - ENE 17 20 9 11 1014.2 1014.1 -
26/05:00am 24.2 - - - - ENE 19 22 10 12 1013.9 1013.8 -
26/04:30am 24.1 - - - - NE 20 24 11 13 1013.4 1013.3 -
26/04:00am 24.1 - - - - NE 19 20 10 11 1013.3 1013.2 -
26/03:30am 24.2 - - - - NE 17 20 9 11 1013.3 1013.2 -
26/03:00am 24.3 - - - - NE 17 19 9 10 1013.5 1013.4 -
26/02:30am 24.4 - - - - NE 17 20 9 11 1013.9 1013.8 -
26/02:00am 24.4 - - - - NE 19 20 10 11 1014.1 1014.0 -
26/01:30am 24.2 - - - - NE 17 19 9 10 1014.4 1014.3 -
26/01:00am 24.1 - - - - ENE 19 20 10 11 1014.5 1014.4 -
26/12:30am 24.0 - - - - E 20 22 11 12 1014.7 1014.6 -
26/12:00am 23.8 - - - - E 20 24 11 13 1014.9 1014.8 -
 
Date/Time
EST
Temp
°C
App
Temp
°C
Dew
Point
°C
Rel
Hum
%
Delta-T
°C
Wind Press
QNH
hPa
Press
MSL
hPa
Rain since
9am
mm
Dir  Spd
km/h
Gust
km/h
Spd
kts
Gust
kts
25/11:30pm 23.8 - - - - E 19 22 10 12 1015.2 1015.1 -
25/11:00pm 23.8 - - - - E 20 24 11 13 1015.2 1015.1 -
25/10:30pm 23.7 - - - - E 20 24 11 13 1015.2 1015.1 -
25/10:00pm 23.8 - - - - E 20 24 11 13 1015.3 1015.2 -
25/09:30pm 24.0 - - - - E 22 26 12 14 1015.5 1015.4 -
25/09:00pm 24.1 - - - - E 24 28 13 15 1015.3 1015.2 -
25/08:30pm 23.9 - - - - E 24 28 13 15 1015.0 1014.9 -
25/08:00pm 24.0 - - - - E 24 28 13 15 1014.6 1014.5 -
25/07:30pm 23.8 - - - - E 24 28 13 15 1014.3 1014.2 -
25/07:00pm 23.8 - - - - E 26 30 14 16 1014.0 1013.9 -
25/06:30pm 23.9 - - - - E 26 30 14 16 1013.5 1013.4 -
25/06:00pm 23.9 - - - - E 24 28 13 15 1013.4 1013.3 -
25/05:30pm 24.1 - - - - ESE 22 24 12 13 1013.2 1013.1 -
25/05:00pm 24.2 - - - - ESE 20 22 11 12 1013.1 1013.0 -
25/04:30pm 24.2 - - - - ESE 19 20 10 11 1012.9 1012.8 -
25/04:00pm 24.2 - - - - ESE 19 20 10 11 1012.8 1012.7 -
25/03:30pm 24.4 - - - - SE 17 20 9 11 1012.8 1012.7 -
25/03:00pm 24.3 - - - - SE 15 17 8 9 1012.9 1012.8 -
25/02:30pm 24.4 - - - - SE 15 17 8 9 1013.1 1013.0 -
25/02:00pm 24.4 - - - - ESE 13 15 7 8 1013.3 1013.2 -
25/01:30pm 24.4 - - - - E 15 17 8 9 1013.7 1013.6 -
25/01:00pm 24.4 - - - - E 15 17 8 9 1013.9 1013.8 -
25/12:30pm 24.4 - - - - E 17 20 9 11 1014.1 1014.0 -
25/12:00pm 24.3 - - - - E 17 20 9 11 1014.5 1014.4 -
25/11:30am 24.4 - - - - E 17 19 9 10 1014.8 1014.7 -
25/11:00am 24.4 - - - - ENE 15 17 8 9 1015.2 1015.1 -
25/10:30am 24.3 - - - - ENE 17 19 9 10 1015.6 1015.5 -
25/10:00am 24.3 - - - - ENE 17 20 9 11 1015.6 1015.5 -
25/09:30am 24.2 - - - - ENE 17 17 9 9 1015.7 1015.6 -
25/09:00am 24.2 - - - - E 15 17 8 9 1015.7 1015.6 -
25/08:30am 24.1 - - - - E 17 19 9 10 1015.5 1015.4 -
25/08:00am 23.9 - - - - E 17 20 9 11 1015.3 1015.2 -
25/07:30am 24.0 - - - - ESE 17 19 9 10 1014.9 1014.8 -
25/07:00am 23.8 - - - - E 17 20 9 11 1014.4 1014.3 -
25/06:30am 23.7 - - - - ESE 17 20 9 11 1014.1 1014.0 -
25/06:00am 23.5 - - - - ESE 19 20 10 11 1013.8 1013.7 -
25/05:30am 23.5 - - - - E 17 20 9 11 1013.6 1013.5 -
25/05:00am 23.5 - - - - E 17 19 9 10 1013.2 1013.1 -
25/04:30am 23.4 - - - - E 17 19 9 10 1012.8 1012.7 -
25/04:00am 23.4 - - - - E 17 19 9 10 1012.6 1012.5 -
25/03:30am 23.4 - - - - E 17 20 9 11 1012.4 1012.3 -
25/03:00am 23.5 - - - - E 17 17 9 9 1012.5 1012.4 -
25/02:30am 23.5 - - - - E 15 17 8 9 1012.6 1012.5 -
25/02:00am 23.6 - - - - E 15 17 8 9 1012.9 1012.8 -
25/01:30am 23.6 - - - - E 15 15 8 8 1013.1 1013.0 -
25/01:00am 23.6 - - - - E 13 15 7 8 1013.3 1013.2 -
25/12:30am 23.7 - - - - E 15 17 8 9 1013.6 1013.5 -
25/12:00am 23.7 - - - - E 15 17 8 9 1014.0 1013.9 -
 
Date/Time
EST
Temp
°C
App
Temp
°C
Dew
Point
°C
Rel
Hum
%
Delta-T
°C
Wind Press
QNH
hPa
Press
MSL
hPa
Rain since
9am
mm
Dir  Spd
km/h
Gust
km/h
Spd
kts
Gust
kts
24/11:30pm 23.6 - - - - E 15 17 8 9 1014.2 1014.1 -
24/11:00pm 23.7 - - - - ENE 17 19 9 10 1014.3 1014.2 -
24/10:30pm 23.6 - - - - ENE 17 19 9 10 1014.2 1014.1 -
24/10:00pm 23.5 - - - - ENE 19 20 10 11 1014.1 1014.0 -
24/09:30pm 23.7 - - - - ENE 20 22 11 12 1014.1 1014.0 -
24/09:00pm 23.6 - - - - ENE 20 22 11 12 1013.8 1013.7 -
24/08:30pm 23.6 - - - - ENE 20 20 11 11 1013.6 1013.5 -
24/08:00pm 23.6 - - - - E 20 20 11 11 1013.3 1013.2 -
24/07:30pm 23.7 - - - - E 20 22 11 12 1012.9 1012.8 -
24/07:00pm 23.9 - - - - ENE 19 20 10 11 1012.6 1012.5 -
24/06:30pm 23.8 - - - - ENE 20 22 11 12 1012.1 1012.0 -
24/06:00pm 23.8 - - - - ENE 20 22 11 12 1011.8 1011.7 -
24/05:30pm 24.0 - - - - ENE 19 20 10 11 1011.5 1011.4 -
24/05:00pm 24.1 - - - - ENE 17 17 9 9 1011.4 1011.3 -
24/04:30pm 24.2 - - - - E 15 15 8 8 1011.2 1011.1 -
24/04:00pm 24.3 - - - - ESE 11 13 6 7 1011.1 1011.0 -
24/03:30pm 24.1 - - - - ESE 13 15 7 8 1011.1 1011.0 -
24/03:00pm 24.1 - - - - ESE 15 17 8 9 1011.1 1011.0 -
24/02:30pm 24.1 - - - - ESE 13 15 7 8 1011.3 1011.2 -
24/02:00pm 24.2 - - - - SE 11 13 6 7 1011.4 1011.3 -
24/01:30pm 24.4 - - - - SE 11 13 6 7 1011.7 1011.6 -
24/01:00pm 24.2 - - - - SE 11 13 6 7 1011.9 1011.8 -
24/12:00pm 24.2 - - - - SE 11 11 6 6 1012.6 1012.5 -
24/11:00am 24.3 - - - - NE 9 9 5 5 1013.3 1013.2 -
24/10:00am 24.7 - - - - NE 6 7 3 4 1013.7 1013.6 -
24/08:30am 24.5 - - - - NNE 4 6 2 3 1013.5 1013.4 -
24/08:00am 24.3 - - - - NNE 7 9 4 5 1013.3 1013.2 -
24/07:30am 24.4 - - - - CALM 0 0 0 0 1013.1 1013.0 -
24/07:00am 24.3 - - - - CALM 0 0 0 0 1012.7 1012.6 -
24/06:30am 23.8 - - - - CALM 0 0 0 0 1012.4 1012.3 -
24/06:00am 23.4 - - - - CALM 0 0 0 0 1012.0 1011.9 -
24/05:30am 23.3 - - - - CALM 0 0 0 0 1011.7 1011.6 -
24/05:00am 23.2 - - - - CALM 0 0 0 0 1011.5 1011.4 -
24/04:30am 22.8 - - - - CALM 0 0 0 0 1011.3 1011.2 -
24/04:00am 23.4 - - - - CALM 0 0 0 0 1011.3 1011.2 -
24/03:30am 23.4 - - - - CALM 0 0 0 0 1011.3 1011.2 -
24/03:00am 23.5 - - - - CALM 0 0 0 0 1011.4 1011.3 -
24/02:30am 23.5 - - - - CALM 0 0 0 0 1011.4 1011.3 -
24/02:00am 23.5 - - - - CALM 0 0 0 0 1011.6 1011.5 -
24/01:30am 23.6 - - - - CALM 0 0 0 0 1011.9 1011.8 -
24/01:00am 23.8 - - - - CALM 0 0 0 0 1012.1 1012.0 -
24/12:30am 23.8 - - - - CALM 0 0 0 0 1012.4 1012.3 -
24/12:00am 23.9 - - - - N 7 7 4 4 1012.4 1012.3 -
 
Date/Time
EST
Temp
°C
App
Temp
°C
Dew
Point
°C
Rel
Hum
%
Delta-T
°C
Wind Press
QNH
hPa
Press
MSL
hPa
Rain since
9am
mm
Dir  Spd
km/h
Gust
km/h
Spd
kts
Gust
kts
23/11:30pm 24.0 - - - - N 7 7 4 4 1012.7 1012.6 -
23/11:00pm 23.9 - - - - N 4 6 2 3 1012.7 1012.6 -
23/10:30pm 24.1 - - - - N 6 7 3 4 1012.8 1012.7 -
23/10:00pm 24.2 - - - - N 9 9 5 5 1012.9 1012.8 -

Other formats

Comma delimited format used in spreadsheet applications
http://www.bom.gov.au/fwo/IDQ60801/IDQ60801.94371.axf

JavaScript Object Notation format (JSON) in row-major order
http://www.bom.gov.au/fwo/IDQ60801/IDQ60801.94371.json

Data quality

Most of these data are generated automatically and are frequently updated. Quality checks on data are not normally performed. It is possible for incorrect values to appear. Refer to information at About Latest Weather Observations and please check the disclaimer before using these data.